createdAt,value
2018-02-14T00:00:04.726Z,1007.97
2018-02-14T00:01:04.701Z,1008.00
2018-02-14T00:02:04.697Z,1007.96
2018-02-14T00:03:04.725Z,1008.00
2018-02-14T00:04:04.709Z,1007.99
2018-02-14T00:05:25.695Z,1008.06
2018-02-14T00:06:04.680Z,1008.02
2018-02-14T00:07:04.672Z,1008.01
2018-02-14T00:08:04.712Z,1008.02
2018-02-14T00:09:04.684Z,1008.05
2018-02-14T00:10:04.693Z,1008.05
2018-02-14T00:11:25.676Z,1008.06
2018-02-14T00:12:04.674Z,1008.12
2018-02-14T00:13:04.648Z,1008.10
2018-02-14T00:14:04.646Z,1008.14
2018-02-14T00:15:04.651Z,1008.15
2018-02-14T00:16:04.655Z,1008.12
2018-02-14T00:17:25.656Z,1008.11
2018-02-14T00:18:04.650Z,1008.14
2018-02-14T00:19:04.660Z,1008.09
2018-02-14T00:20:04.633Z,1008.06
2018-02-14T00:21:04.677Z,1008.06
2018-02-14T00:22:04.639Z,1008.09
2018-02-14T00:23:25.658Z,1008.01
2018-02-14T00:24:04.672Z,1008.08
2018-02-14T00:25:04.611Z,1008.06
2018-02-14T00:26:04.609Z,1008.11
2018-02-14T00:27:04.613Z,1008.09
2018-02-14T00:28:04.613Z,1008.09
2018-02-14T00:29:25.618Z,1008.09
2018-02-14T00:30:04.597Z,1008.08
2018-02-14T00:31:04.607Z,1008.08
2018-02-14T00:32:04.600Z,1008.09
2018-02-14T00:33:04.595Z,1008.11
2018-02-14T00:34:05.236Z,1008.13
2018-02-14T00:35:25.629Z,1008.12
2018-02-14T00:36:04.591Z,1008.14
2018-02-14T00:37:04.583Z,1008.12
2018-02-14T00:38:04.569Z,1008.10
2018-02-14T00:39:04.582Z,1008.11
2018-02-14T00:40:04.579Z,1008.13
2018-02-14T00:41:25.608Z,1008.12
2018-02-14T00:42:04.557Z,1008.15
2018-02-14T00:43:04.541Z,1008.19
2018-02-14T00:44:04.568Z,1008.16
2018-02-14T00:45:04.609Z,1008.16
2018-02-14T00:46:04.536Z,1008.17
2018-02-14T00:47:25.565Z,1008.21
2018-02-14T00:48:04.548Z,1008.22
2018-02-14T00:49:04.537Z,1008.20
2018-02-14T00:50:04.664Z,1008.22
2018-02-14T00:51:04.556Z,1008.21
2018-02-14T00:52:04.556Z,1008.26
2018-02-14T00:53:25.521Z,1008.23
2018-02-14T00:54:04.520Z,1008.20
2018-02-14T00:55:04.560Z,1008.20
2018-02-14T00:56:04.521Z,1008.24
2018-02-14T00:57:04.509Z,1008.27
2018-02-14T00:58:04.502Z,1008.29
2018-02-14T00:59:25.551Z,1008.36
2018-02-14T01:00:04.580Z,1008.31
2018-02-14T01:01:04.482Z,1008.37
2018-02-14T01:02:04.477Z,1008.37
2018-02-14T01:03:04.518Z,1008.36
2018-02-14T01:04:04.479Z,1008.38
2018-02-14T01:05:25.504Z,1008.34
2018-02-14T01:06:04.464Z,1008.36
2018-02-14T01:07:04.474Z,1008.36
2018-02-14T01:08:05.216Z,1008.37
2018-02-14T01:09:04.514Z,1008.33
2018-02-14T01:10:04.473Z,1008.34
2018-02-14T01:11:25.480Z,1008.36
2018-02-14T01:12:04.453Z,1008.38
2018-02-14T01:13:04.434Z,1008.37
2018-02-14T01:14:04.449Z,1008.40
2018-02-14T01:15:04.459Z,1008.38
2018-02-14T01:16:04.438Z,1008.38
2018-02-14T01:17:25.434Z,1008.41
2018-02-14T01:18:04.526Z,1008.38
2018-02-14T01:19:04.415Z,1008.41
2018-02-14T01:20:04.402Z,1008.40
2018-02-14T01:21:04.412Z,1008.42
2018-02-14T01:22:04.395Z,1008.37
2018-02-14T01:23:25.408Z,1008.39
2018-02-14T01:24:04.400Z,1008.34
2018-02-14T01:25:04.408Z,1008.39
2018-02-14T01:26:04.406Z,1008.36
2018-02-14T01:27:04.410Z,1008.36
2018-02-14T01:28:04.408Z,1008.35
2018-02-14T01:29:25.378Z,1008.34
2018-02-14T01:30:04.422Z,1008.34
2018-02-14T01:31:04.371Z,1008.34
2018-02-14T01:32:04.377Z,1008.33
2018-02-14T01:33:04.354Z,1008.32
2018-02-14T01:34:04.369Z,1008.33
2018-02-14T01:35:25.367Z,1008.33
2018-02-14T01:36:04.377Z,1008.33
2018-02-14T01:37:04.415Z,1008.33
2018-02-14T01:38:04.339Z,1008.36
2018-02-14T01:39:04.335Z,1008.37
2018-02-14T01:40:04.330Z,1008.40
2018-02-14T01:41:25.343Z,1008.43
2018-02-14T01:42:04.339Z,1008.45
2018-02-14T01:43:04.329Z,1008.40
2018-02-14T01:44:04.364Z,1008.40
2018-02-14T01:45:04.327Z,1008.41
2018-02-14T01:46:04.321Z,1008.44
2018-02-14T01:47:25.345Z,1008.39
2018-02-14T01:48:04.310Z,1008.44
2018-02-14T01:49:04.294Z,1008.45
2018-02-14T01:50:04.296Z,1008.46
2018-02-14T01:51:04.297Z,1008.49
2018-02-14T01:52:04.306Z,1008.51
2018-02-14T01:53:25.289Z,1008.46
2018-02-14T01:54:04.298Z,1008.47
2018-02-14T01:55:05.247Z,1008.48
2018-02-14T01:56:04.273Z,1008.45
2018-02-14T01:57:04.266Z,1008.45
2018-02-14T01:58:04.307Z,1008.48
2018-02-14T01:59:25.325Z,1008.46
2018-02-14T02:00:04.266Z,1008.49
2018-02-14T02:01:04.354Z,1008.45
2018-02-14T02:02:04.296Z,1008.44
2018-02-14T02:03:04.246Z,1008.43
2018-02-14T02:04:04.344Z,1008.44
2018-02-14T02:05:25.256Z,1008.43
2018-02-14T02:06:04.243Z,1008.50
2018-02-14T02:07:04.234Z,1008.47
2018-02-14T02:08:04.231Z,1008.52
2018-02-14T02:09:04.217Z,1008.50
2018-02-14T02:10:04.234Z,1008.48
2018-02-14T02:11:25.236Z,1008.48
2018-02-14T02:12:04.233Z,1008.48
2018-02-14T02:13:04.198Z,1008.49
2018-02-14T02:14:04.204Z,1008.51
2018-02-14T02:15:04.234Z,1008.52
2018-02-14T02:16:04.222Z,1008.52
2018-02-14T02:17:25.230Z,1008.52
2018-02-14T02:18:04.183Z,1008.52
2018-02-14T02:19:04.204Z,1008.56
2018-02-14T02:20:04.183Z,1008.52
2018-02-14T02:21:04.203Z,1008.57
2018-02-14T02:22:04.175Z,1008.56
2018-02-14T02:23:25.201Z,1008.55
2018-02-14T02:24:04.741Z,1008.55
2018-02-14T02:25:04.178Z,1008.53
2018-02-14T02:26:04.157Z,1008.54
2018-02-14T02:27:04.198Z,1008.53
2018-02-14T02:28:04.186Z,1008.52
2018-02-14T02:29:25.144Z,1008.54
2018-02-14T02:30:04.142Z,1008.51
2018-02-14T02:31:04.127Z,1008.55
2018-02-14T02:32:04.739Z,1008.51
2018-02-14T02:33:04.126Z,1008.53
2018-02-14T02:34:04.132Z,1008.54
2018-02-14T02:35:25.132Z,1008.55
2018-02-14T02:36:04.145Z,1008.56
2018-02-14T02:37:04.121Z,1008.57
2018-02-14T02:38:04.125Z,1008.54
2018-02-14T02:39:04.142Z,1008.59
2018-02-14T02:40:04.103Z,1008.56
2018-02-14T02:41:25.100Z,1008.59
2018-02-14T02:42:04.122Z,1008.60
2018-02-14T02:43:04.120Z,1008.61
2018-02-14T02:44:04.095Z,1008.63
2018-02-14T02:45:04.169Z,1008.63
2018-02-14T02:46:04.071Z,1008.63
2018-02-14T02:47:25.072Z,1008.65
2018-02-14T02:48:04.089Z,1008.66
2018-02-14T02:49:04.061Z,1008.68
2018-02-14T02:50:04.062Z,1008.69
2018-02-14T02:51:04.075Z,1008.72
2018-02-14T02:52:04.046Z,1008.73
2018-02-14T02:53:25.077Z,1008.79
2018-02-14T02:54:04.046Z,1008.79
2018-02-14T02:55:04.044Z,1008.76
2018-02-14T02:56:04.062Z,1008.80
2018-02-14T02:57:04.026Z,1008.82
2018-02-14T02:58:04.153Z,1008.82
2018-02-14T02:59:25.083Z,1008.82
2018-02-14T03:00:04.011Z,1008.84
2018-02-14T03:01:04.100Z,1008.82
2018-02-14T03:02:04.104Z,1008.85
2018-02-14T03:03:03.992Z,1008.82
2018-02-14T03:04:04.011Z,1008.82
2018-02-14T03:05:25.058Z,1008.81
2018-02-14T03:06:04.021Z,1008.87
2018-02-14T03:07:04.001Z,1008.89
2018-02-14T03:08:04.026Z,1008.86
2018-02-14T03:09:03.975Z,1008.92
2018-02-14T03:10:03.969Z,1008.84
2018-02-14T03:11:24.988Z,1008.87
2018-02-14T03:12:03.968Z,1008.87
2018-02-14T03:13:03.956Z,1008.91
2018-02-14T03:14:04.082Z,1008.88
2018-02-14T03:15:03.959Z,1008.90
2018-02-14T03:16:03.955Z,1008.89
2018-02-14T03:17:24.971Z,1008.88
2018-02-14T03:18:03.959Z,1008.88
2018-02-14T03:19:03.999Z,1008.90
2018-02-14T03:20:04.004Z,1008.90
2018-02-14T03:21:03.922Z,1008.90
2018-02-14T03:22:03.928Z,1008.92
2018-02-14T03:23:25.746Z,1008.88
2018-02-14T03:24:03.939Z,1008.89
2018-02-14T03:25:03.914Z,1008.92
2018-02-14T03:26:03.913Z,1008.88
2018-02-14T03:27:03.927Z,1008.90
2018-02-14T03:28:03.892Z,1008.88
2018-02-14T03:29:24.969Z,1008.92
2018-02-14T03:30:04.703Z,1008.91
2018-02-14T03:31:03.886Z,1008.90
2018-02-14T03:32:04.765Z,1008.87
2018-02-14T03:33:03.871Z,1008.93
2018-02-14T03:34:03.914Z,1008.90
2018-02-14T03:35:24.878Z,1008.91
2018-02-14T03:36:03.888Z,1008.98
2018-02-14T03:37:03.865Z,1009.00
2018-02-14T03:38:03.876Z,1009.04
2018-02-14T03:39:04.008Z,1009.08
2018-02-14T03:40:03.841Z,1009.08
2018-02-14T03:41:24.838Z,1009.07
2018-02-14T03:42:03.825Z,1009.14
2018-02-14T03:43:03.841Z,1009.16
2018-02-14T03:44:03.837Z,1009.16
2018-02-14T03:45:03.824Z,1009.15
2018-02-14T03:46:03.862Z,1009.18
2018-02-14T03:47:24.855Z,1009.18
2018-02-14T03:48:03.909Z,1009.20
2018-02-14T03:49:03.806Z,1009.21
2018-02-14T03:50:03.806Z,1009.20
2018-02-14T03:51:03.805Z,1009.23
2018-02-14T03:52:03.802Z,1009.23
2018-02-14T03:53:24.802Z,1009.27
2018-02-14T03:54:03.804Z,1009.29
2018-02-14T03:55:03.836Z,1009.29
2018-02-14T03:56:03.830Z,1009.36
2018-02-14T03:57:03.782Z,1009.34
2018-02-14T03:58:03.776Z,1009.30
2018-02-14T03:59:24.819Z,1009.33
2018-02-14T04:00:03.763Z,1009.32
2018-02-14T04:01:03.859Z,1009.32
2018-02-14T04:02:03.754Z,1009.28
2018-02-14T04:03:03.892Z,1009.23
2018-02-14T04:04:03.752Z,1009.26
2018-02-14T04:05:25.759Z,1009.30
2018-02-14T04:06:03.751Z,1009.25
2018-02-14T04:07:03.733Z,1009.30
2018-02-14T04:08:03.743Z,1009.29
2018-02-14T04:09:03.720Z,1009.30
2018-02-14T04:10:03.782Z,1009.27
2018-02-14T04:11:24.714Z,1009.36
2018-02-14T04:12:03.703Z,1009.32
2018-02-14T04:13:03.712Z,1009.35
2018-02-14T04:14:03.727Z,1009.36
2018-02-14T04:15:03.704Z,1009.36
2018-02-14T04:16:03.707Z,1009.38
2018-02-14T04:17:24.692Z,1009.43
2018-02-14T04:18:03.692Z,1009.47
2018-02-14T04:19:03.679Z,1009.48
2018-02-14T04:20:03.671Z,1009.49
2018-02-14T04:21:03.701Z,1009.51
2018-02-14T04:22:03.675Z,1009.50
2018-02-14T04:23:24.664Z,1009.52
2018-02-14T04:24:03.675Z,1009.53
2018-02-14T04:25:03.673Z,1009.55
2018-02-14T04:26:03.637Z,1009.53
2018-02-14T04:27:03.671Z,1009.58
2018-02-14T04:28:03.645Z,1009.55
2018-02-14T04:29:24.651Z,1009.54
2018-02-14T04:30:03.636Z,1009.55
2018-02-14T04:31:03.635Z,1009.56
2018-02-14T04:32:03.633Z,1009.56
2018-02-14T04:33:03.641Z,1009.58
2018-02-14T04:34:03.618Z,1009.62
2018-02-14T04:35:24.620Z,1009.61
2018-02-14T04:36:03.602Z,1009.64
2018-02-14T04:37:03.592Z,1009.65
2018-02-14T04:38:03.619Z,1009.66
2018-02-14T04:39:03.589Z,1009.66
2018-02-14T04:40:03.584Z,1009.67
2018-02-14T04:41:24.596Z,1009.65
2018-02-14T04:42:03.600Z,1009.70
2018-02-14T04:43:03.581Z,1009.67
2018-02-14T04:44:03.606Z,1009.68
2018-02-14T04:45:03.563Z,1009.71
2018-02-14T04:46:03.572Z,1009.73
2018-02-14T04:47:24.567Z,1009.74
2018-02-14T04:48:03.552Z,1009.74
2018-02-14T04:49:03.568Z,1009.77
2018-02-14T04:50:04.260Z,1009.82
2018-02-14T04:51:03.651Z,1009.79
2018-02-14T04:52:03.553Z,1009.85
2018-02-14T04:53:24.542Z,1009.89
2018-02-14T04:54:03.516Z,1009.90
2018-02-14T04:55:03.512Z,1009.92
2018-02-14T04:56:03.515Z,1009.89
2018-02-14T04:57:03.520Z,1009.91
2018-02-14T04:58:03.562Z,1009.93
2018-02-14T04:59:24.526Z,1009.90
2018-02-14T05:00:03.569Z,1009.93
2018-02-14T05:01:03.495Z,1009.91
2018-02-14T05:02:03.506Z,1009.92
2018-02-14T05:03:03.494Z,1009.93
2018-02-14T05:04:03.605Z,1009.95
2018-02-14T05:05:24.507Z,1009.97
2018-02-14T05:06:03.484Z,1009.92
2018-02-14T05:07:03.492Z,1009.98
2018-02-14T05:08:03.474Z,1009.95
2018-02-14T05:09:03.537Z,1009.93
2018-02-14T05:10:03.482Z,1009.94
2018-02-14T05:11:24.470Z,1009.96
2018-02-14T05:12:03.474Z,1009.95
2018-02-14T05:13:03.457Z,1009.92
2018-02-14T05:14:03.445Z,1009.97
2018-02-14T05:15:03.442Z,1009.94
2018-02-14T05:16:03.545Z,1009.94
2018-02-14T05:17:24.470Z,1009.97
2018-02-14T05:18:03.434Z,1009.99
2018-02-14T05:19:03.442Z,1009.97
2018-02-14T05:20:03.421Z,1009.98
2018-02-14T05:21:03.403Z,1010.02
2018-02-14T05:22:03.393Z,1010.02
2018-02-14T05:23:24.417Z,1010.02
2018-02-14T05:24:03.431Z,1009.99
2018-02-14T05:25:03.473Z,1009.98
2018-02-14T05:26:03.383Z,1010.00
2018-02-14T05:27:03.376Z,1009.98
2018-02-14T05:28:03.382Z,1010.02
2018-02-14T05:29:24.410Z,1009.98
2018-02-14T05:30:03.393Z,1009.95
2018-02-14T05:31:03.400Z,1009.97
2018-02-14T05:32:03.356Z,1009.97
2018-02-14T05:33:03.351Z,1009.99
2018-02-14T05:34:03.341Z,1009.98
2018-02-14T05:35:24.429Z,1010.02
2018-02-14T05:36:03.334Z,1010.04
2018-02-14T05:37:03.332Z,1010.04
2018-02-14T05:38:03.447Z,1010.05
2018-02-14T05:39:03.441Z,1010.01
2018-02-14T05:40:03.370Z,1010.02
2018-02-14T05:41:24.319Z,1010.02
2018-02-14T05:42:03.302Z,1010.05
2018-02-14T05:43:03.299Z,1010.03
2018-02-14T05:44:03.304Z,1010.02
2018-02-14T05:45:03.346Z,1010.07
2018-02-14T05:46:03.288Z,1010.07
2018-02-14T05:47:25.253Z,1010.08
2018-02-14T05:48:03.284Z,1010.09
2018-02-14T05:49:03.268Z,1010.10
2018-02-14T05:50:03.292Z,1010.14
2018-02-14T05:51:04.258Z,1010.11
2018-02-14T05:52:03.301Z,1010.13
2018-02-14T05:53:24.271Z,1010.17
2018-02-14T05:54:03.271Z,1010.13
2018-02-14T05:55:03.281Z,1010.14
2018-02-14T05:56:03.268Z,1010.15
2018-02-14T05:57:03.249Z,1010.19
2018-02-14T05:58:03.259Z,1010.15
2018-02-14T05:59:24.244Z,1010.15
2018-02-14T06:00:03.278Z,1010.18
2018-02-14T06:01:03.299Z,1010.18
2018-02-14T06:02:03.228Z,1010.16
2018-02-14T06:03:03.292Z,1010.16
2018-02-14T06:04:03.224Z,1010.12
2018-02-14T06:05:24.333Z,1010.18
2018-02-14T06:06:03.237Z,1010.12
2018-02-14T06:07:03.260Z,1010.12
2018-02-14T06:08:03.199Z,1010.14
2018-02-14T06:09:03.184Z,1010.09
2018-02-14T06:10:03.180Z,1010.11
2018-02-14T06:11:24.186Z,1010.12
2018-02-14T06:12:03.467Z,1010.08
2018-02-14T06:13:03.182Z,1010.10
2018-02-14T06:14:03.183Z,1010.11
2018-02-14T06:15:03.380Z,1010.14
2018-02-14T06:16:03.171Z,1010.11
2018-02-14T06:17:24.160Z,1010.10
2018-02-14T06:18:03.159Z,1010.15
2018-02-14T06:19:03.162Z,1010.19
2018-02-14T06:20:03.138Z,1010.18
2018-02-14T06:21:03.144Z,1010.18
2018-02-14T06:22:03.134Z,1010.19
2018-02-14T06:23:24.132Z,1010.23
2018-02-14T06:24:03.133Z,1010.21
2018-02-14T06:25:03.114Z,1010.24
2018-02-14T06:26:03.115Z,1010.18
2018-02-14T06:27:03.139Z,1010.27
2018-02-14T06:28:03.305Z,1010.27
2018-02-14T06:29:24.113Z,1010.23
2018-02-14T06:30:03.114Z,1010.25
2018-02-14T06:31:03.108Z,1010.18
2018-02-14T06:32:03.077Z,1010.24
2018-02-14T06:33:03.273Z,1010.25
2018-02-14T06:34:03.085Z,1010.26
2018-02-14T06:35:24.076Z,1010.28
2018-02-14T06:36:03.069Z,1010.26
2018-02-14T06:37:03.074Z,1010.25
2018-02-14T06:38:03.080Z,1010.26
2018-02-14T06:39:03.088Z,1010.27
2018-02-14T06:40:03.075Z,1010.29
2018-02-14T06:41:24.082Z,1010.30
2018-02-14T06:42:03.071Z,1010.31
2018-02-14T06:43:03.069Z,1010.34
2018-02-14T06:44:03.066Z,1010.29
2018-02-14T06:45:03.029Z,1010.33
2018-02-14T06:46:03.833Z,1010.31
2018-02-14T06:47:24.044Z,1010.30
2018-02-14T06:48:03.030Z,1010.31
2018-02-14T06:49:03.029Z,1010.32
2018-02-14T06:50:03.003Z,1010.32
2018-02-14T06:51:03.028Z,1010.30
2018-02-14T06:52:03.013Z,1010.30
2018-02-14T06:53:24.026Z,1010.33
2018-02-14T06:54:03.003Z,1010.26
2018-02-14T06:55:02.995Z,1010.30
2018-02-14T06:56:03.059Z,1010.29
2018-02-14T06:57:02.974Z,1010.31
2018-02-14T06:58:02.990Z,1010.33
2018-02-14T06:59:23.967Z,1010.33
2018-02-14T07:00:02.960Z,1010.36
2018-02-14T07:01:02.960Z,1010.38
2018-02-14T07:02:03.191Z,1010.38
2018-02-14T07:03:02.939Z,1010.42
2018-02-14T07:04:03.002Z,1010.37
2018-02-14T07:05:23.942Z,1010.49
2018-02-14T07:06:03.053Z,1010.51
2018-02-14T07:07:02.932Z,1010.53
2018-02-14T07:08:02.950Z,1010.50
2018-02-14T07:09:02.961Z,1010.51
2018-02-14T07:10:03.060Z,1010.51
2018-02-14T07:11:24.009Z,1010.50
2018-02-14T07:12:02.944Z,1010.52
2018-02-14T07:13:02.955Z,1010.53
2018-02-14T07:14:02.900Z,1010.49
2018-02-14T07:15:03.049Z,1010.48
2018-02-14T07:16:02.912Z,1010.50
2018-02-14T07:17:23.919Z,1010.50
2018-02-14T07:18:02.913Z,1010.58
2018-02-14T07:19:02.910Z,1010.55
2018-02-14T07:20:02.882Z,1010.55
2018-02-14T07:21:02.884Z,1010.62
2018-02-14T07:22:02.872Z,1010.62
2018-02-14T07:23:23.871Z,1010.65
2018-02-14T07:24:02.862Z,1010.69
2018-02-14T07:25:02.881Z,1010.73
2018-02-14T07:26:02.837Z,1010.68
2018-02-14T07:27:02.925Z,1010.73
2018-02-14T07:28:02.909Z,1010.71
2018-02-14T07:29:23.823Z,1010.71
2018-02-14T07:30:02.810Z,1010.72
2018-02-14T07:31:02.841Z,1010.73
2018-02-14T07:32:02.857Z,1010.77
2018-02-14T07:33:02.834Z,1010.77
2018-02-14T07:34:02.807Z,1010.79
2018-02-14T07:35:23.852Z,1010.83
2018-02-14T07:36:02.915Z,1010.83
2018-02-14T07:37:02.789Z,1010.85
2018-02-14T07:38:02.795Z,1010.89
2018-02-14T07:39:02.772Z,1010.91
2018-02-14T07:40:02.790Z,1010.93
2018-02-14T07:41:24.122Z,1010.93
2018-02-14T07:42:02.790Z,1010.99
2018-02-14T07:43:02.830Z,1011.04
2018-02-14T07:44:02.753Z,1011.06
2018-02-14T07:45:02.835Z,1011.07
2018-02-14T07:46:02.788Z,1011.15
2018-02-14T07:47:23.752Z,1011.18
2018-02-14T07:48:02.751Z,1011.17
2018-02-14T07:49:02.816Z,1011.19
2018-02-14T07:50:02.741Z,1011.21
2018-02-14T07:51:02.738Z,1011.26
2018-02-14T07:52:02.733Z,1011.26
2018-02-14T07:53:23.888Z,1011.28
2018-02-14T07:54:02.756Z,1011.34
2018-02-14T07:55:02.721Z,1011.36
2018-02-14T07:56:02.718Z,1011.41
2018-02-14T07:57:02.713Z,1011.38
2018-02-14T07:58:02.708Z,1011.43
2018-02-14T07:59:23.711Z,1011.45
2018-02-14T08:00:02.703Z,1011.46
2018-02-14T08:01:02.736Z,1011.56
2018-02-14T08:02:02.757Z,1011.56
2018-02-14T08:03:02.697Z,1011.57
2018-02-14T08:04:02.701Z,1011.59
2018-02-14T08:05:23.707Z,1011.54
2018-02-14T08:06:02.762Z,1011.55
2018-02-14T08:07:02.788Z,1011.54
2018-02-14T08:08:02.797Z,1011.61
2018-02-14T08:09:02.684Z,1011.57
2018-02-14T08:10:02.746Z,1011.56
2018-02-14T08:11:23.695Z,1011.58
2018-02-14T08:12:02.680Z,1011.60
2018-02-14T08:13:02.696Z,1011.66
2018-02-14T08:14:02.694Z,1011.65
2018-02-14T08:15:02.672Z,1011.73
2018-02-14T08:16:02.702Z,1011.68
2018-02-14T08:17:23.748Z,1011.73
2018-02-14T08:18:02.797Z,1011.73
2018-02-14T08:19:02.843Z,1011.65
2018-02-14T08:20:02.694Z,1011.71
2018-02-14T08:21:02.753Z,1011.68
2018-02-14T08:22:02.699Z,1011.71
2018-02-14T08:23:23.711Z,1011.72
2018-02-14T08:24:02.949Z,1011.76
2018-02-14T08:25:02.696Z,1011.74
2018-02-14T08:26:02.702Z,1011.76
2018-02-14T08:27:02.794Z,1011.82
2018-02-14T08:28:02.682Z,1011.86
2018-02-14T08:29:23.748Z,1011.88
2018-02-14T08:30:02.715Z,1011.86
2018-02-14T08:31:02.696Z,1011.88
2018-02-14T08:32:02.754Z,1011.90
2018-02-14T08:33:02.697Z,1011.91
2018-02-14T08:34:02.785Z,1011.93
2018-02-14T08:35:23.690Z,1011.94
2018-02-14T08:36:02.859Z,1011.94
2018-02-14T08:37:02.734Z,1011.99
2018-02-14T08:38:02.711Z,1012.07
2018-02-14T08:39:02.755Z,1012.16
2018-02-14T08:40:02.710Z,1012.21
2018-02-14T08:41:23.718Z,1012.37
2018-02-14T08:42:02.717Z,1012.53
2018-02-14T08:43:02.701Z,1012.79
2018-02-14T08:44:02.747Z,1013.07
2018-02-14T08:45:03.427Z,1013.19
2018-02-14T08:46:02.831Z,1013.02
2018-02-14T08:47:23.765Z,1012.70
2018-02-14T08:48:02.751Z,1012.49
2018-02-14T08:49:03.775Z,1012.38
2018-02-14T08:50:03.075Z,1012.31
2018-02-14T08:51:03.158Z,1012.35
2018-02-14T08:52:03.634Z,1012.39
2018-02-14T08:53:23.792Z,1012.37
2018-02-14T08:54:02.752Z,1012.33
2018-02-14T08:55:02.882Z,1012.28
2018-02-14T08:56:02.752Z,1012.32
2018-02-14T08:57:02.756Z,1012.35
2018-02-14T08:58:02.755Z,1012.35
2018-02-14T08:59:23.790Z,1012.36
2018-02-14T09:00:02.768Z,1012.36
2018-02-14T09:01:02.764Z,1012.37
2018-02-14T09:02:02.882Z,1012.38
2018-02-14T09:03:02.802Z,1012.37
2018-02-14T09:04:03.015Z,1012.36
2018-02-14T09:05:23.808Z,1012.39
2018-02-14T09:06:02.806Z,1012.39
2018-02-14T09:07:03.005Z,1012.32
2018-02-14T09:08:02.837Z,1012.32
2018-02-14T09:09:02.886Z,1012.27
2018-02-14T09:10:02.804Z,1012.29
2018-02-14T09:11:23.818Z,1012.24
2018-02-14T09:12:02.826Z,1012.27
2018-02-14T09:13:02.837Z,1012.23
2018-02-14T09:14:02.892Z,1012.22
2018-02-14T09:15:02.824Z,1012.20
2018-02-14T09:16:02.904Z,1012.22
2018-02-14T09:17:23.868Z,1012.20
2018-02-14T09:18:02.879Z,1012.19
2018-02-14T09:19:02.848Z,1012.20
2018-02-14T09:20:02.843Z,1012.25
2018-02-14T09:21:02.867Z,1012.27
2018-02-14T09:22:02.856Z,1012.27
2018-02-14T09:23:23.973Z,1012.34
2018-02-14T09:24:02.893Z,1012.31
2018-02-14T09:25:02.876Z,1012.30
2018-02-14T09:26:02.881Z,1012.28
2018-02-14T09:27:03.049Z,1012.31
2018-02-14T09:28:02.895Z,1012.33
2018-02-14T09:29:23.935Z,1012.37
2018-02-14T09:30:02.954Z,1012.37
2018-02-14T09:31:03.042Z,1012.39
2018-02-14T09:32:02.890Z,1012.33
2018-02-14T09:33:02.920Z,1012.31
2018-02-14T09:34:02.926Z,1012.36
2018-02-14T09:35:23.967Z,1012.44
2018-02-14T09:36:03.011Z,1012.44
2018-02-14T09:37:02.930Z,1012.47
2018-02-14T09:38:02.916Z,1012.47
2018-02-14T09:39:02.982Z,1012.51
2018-02-14T09:40:03.172Z,1012.48
2018-02-14T09:41:23.965Z,1012.48
2018-02-14T09:42:02.958Z,1012.51
2018-02-14T09:43:03.024Z,1012.43
2018-02-14T09:44:02.969Z,1012.46
2018-02-14T09:45:02.996Z,1012.45
2018-02-14T09:46:02.987Z,1012.54
2018-02-14T09:47:23.983Z,1012.65
2018-02-14T09:48:03.000Z,1012.64
2018-02-14T09:49:02.997Z,1012.63
2018-02-14T09:50:03.007Z,1012.65
2018-02-14T09:51:03.008Z,1012.66
2018-02-14T09:52:03.006Z,1012.69
2018-02-14T09:53:24.027Z,1012.70
2018-02-14T09:54:03.024Z,1012.73
2018-02-14T09:55:03.018Z,1012.75
2018-02-14T09:56:03.041Z,1012.66
2018-02-14T09:57:03.027Z,1012.75
2018-02-14T09:58:03.043Z,1012.72
2018-02-14T09:59:24.939Z,1012.71
2018-02-14T10:00:03.127Z,1012.75
2018-02-14T10:01:03.056Z,1012.72
2018-02-14T10:02:03.108Z,1012.74
2018-02-14T10:03:03.106Z,1012.72
2018-02-14T10:04:03.143Z,1012.72
2018-02-14T10:05:24.086Z,1012.73
2018-02-14T10:06:03.080Z,1012.71
2018-02-14T10:07:03.096Z,1012.67
2018-02-14T10:08:03.096Z,1012.44
2018-02-14T10:09:03.096Z,1012.25
2018-02-14T10:10:03.104Z,1012.15
2018-02-14T10:11:24.145Z,1012.12
2018-02-14T10:12:03.122Z,1012.14
2018-02-14T10:13:03.143Z,1012.06
2018-02-14T10:14:03.775Z,1012.07
2018-02-14T10:15:03.153Z,1012.12
2018-02-14T10:16:03.152Z,1012.11
2018-02-14T10:17:24.137Z,1012.13
2018-02-14T10:18:03.204Z,1012.16
2018-02-14T10:19:03.152Z,1012.19
2018-02-14T10:20:03.158Z,1012.21
2018-02-14T10:21:03.294Z,1012.19
2018-02-14T10:22:03.232Z,1012.14
2018-02-14T10:23:24.168Z,1012.19
2018-02-14T10:24:03.349Z,1012.16
2018-02-14T10:25:03.193Z,1012.22
2018-02-14T10:26:03.181Z,1012.22
2018-02-14T10:27:03.364Z,1012.23
2018-02-14T10:28:03.191Z,1012.30
2018-02-14T10:29:24.228Z,1012.25
2018-02-14T10:30:03.202Z,1012.25
2018-02-14T10:31:03.409Z,1012.23
2018-02-14T10:32:03.213Z,1012.23
2018-02-14T10:33:03.194Z,1012.19
2018-02-14T10:34:03.249Z,1012.26
2018-02-14T10:35:24.843Z,1012.35
2018-02-14T10:36:03.259Z,1012.42
2018-02-14T10:37:04.308Z,1012.40
2018-02-14T10:38:03.232Z,1012.43
2018-02-14T10:39:03.254Z,1012.47
2018-02-14T10:40:03.244Z,1012.55
2018-02-14T10:41:24.231Z,1012.59
2018-02-14T10:42:03.245Z,1012.69
2018-02-14T10:43:03.884Z,1012.79
2018-02-14T10:44:03.303Z,1012.91
2018-02-14T10:45:03.263Z,1012.97
2018-02-14T10:46:03.263Z,1013.06
2018-02-14T10:47:24.314Z,1013.01
2018-02-14T10:48:03.260Z,1013.00
2018-02-14T10:49:03.326Z,1013.04
2018-02-14T10:50:03.328Z,1013.07
2018-02-14T10:51:03.304Z,1013.07
2018-02-14T10:52:03.312Z,1013.04
2018-02-14T10:53:24.288Z,1013.14
2018-02-14T10:54:03.896Z,1013.14
2018-02-14T10:55:03.380Z,1013.24
2018-02-14T10:56:03.391Z,1013.19
2018-02-14T10:57:03.293Z,1013.22
2018-02-14T10:58:03.366Z,1013.22
2018-02-14T10:59:24.411Z,1013.32
2018-02-14T11:00:03.331Z,1013.26
2018-02-14T11:01:03.367Z,1013.27
2018-02-14T11:02:03.370Z,1013.31
2018-02-14T11:03:04.337Z,1013.28
2018-02-14T11:04:03.370Z,1013.21
2018-02-14T11:05:25.843Z,1013.21
2018-02-14T11:06:03.453Z,1013.22
2018-02-14T11:07:03.384Z,1013.26
2018-02-14T11:08:03.526Z,1013.21
2018-02-14T11:09:03.532Z,1013.20
2018-02-14T11:10:03.514Z,1013.20
2018-02-14T11:11:24.401Z,1013.17
2018-02-14T11:12:03.495Z,1013.22
2018-02-14T11:13:03.451Z,1013.22
2018-02-14T11:14:03.414Z,1013.17
2018-02-14T11:15:03.440Z,1013.19
2018-02-14T11:16:03.445Z,1013.21
2018-02-14T11:17:24.440Z,1013.35
2018-02-14T11:18:03.450Z,1013.29
2018-02-14T11:19:03.444Z,1013.25
2018-02-14T11:20:03.449Z,1013.24
2018-02-14T11:21:03.465Z,1013.24
2018-02-14T11:22:03.463Z,1013.27
2018-02-14T11:23:24.481Z,1013.29
2018-02-14T11:24:03.483Z,1013.38
2018-02-14T11:25:03.498Z,1013.37
2018-02-14T11:26:04.371Z,1013.35
2018-02-14T11:27:03.570Z,1013.34
2018-02-14T11:28:03.492Z,1013.32
2018-02-14T11:29:24.653Z,1013.33
2018-02-14T11:30:03.557Z,1013.26
2018-02-14T11:31:03.632Z,1013.26
2018-02-14T11:32:03.536Z,1013.15
2018-02-14T11:33:03.559Z,1013.19
2018-02-14T11:34:03.675Z,1013.14
2018-02-14T11:35:24.564Z,1013.17
2018-02-14T11:36:04.419Z,1013.06
2018-02-14T11:37:03.568Z,1013.14
2018-02-14T11:38:03.572Z,1013.18
2018-02-14T11:39:03.622Z,1013.07
2018-02-14T11:40:03.591Z,1013.02
2018-02-14T11:41:24.609Z,1013.03
2018-02-14T11:42:03.604Z,1013.00
2018-02-14T11:43:03.639Z,1013.11
2018-02-14T11:44:03.649Z,1013.22
2018-02-14T11:45:03.628Z,1013.34
2018-02-14T11:46:03.655Z,1013.12
2018-02-14T11:47:24.665Z,1013.14
2018-02-14T11:48:03.661Z,1013.11
2018-02-14T11:49:03.694Z,1013.02
2018-02-14T11:50:03.670Z,1012.99
2018-02-14T11:51:03.690Z,1012.96
2018-02-14T11:52:03.688Z,1012.96
2018-02-14T11:53:24.713Z,1012.97
2018-02-14T11:54:03.718Z,1012.99
2018-02-14T11:55:03.735Z,1012.94
2018-02-14T11:56:03.738Z,1012.96
2018-02-14T11:57:03.762Z,1012.97
2018-02-14T11:58:03.740Z,1012.97
2018-02-14T11:59:24.812Z,1013.09
2018-02-14T12:00:03.770Z,1013.40
2018-02-14T12:01:03.807Z,1013.58
2018-02-14T12:02:03.780Z,1013.31
2018-02-14T12:03:03.805Z,1013.05
2018-02-14T12:04:03.805Z,1012.79
2018-02-14T12:05:24.813Z,1012.58